sensor_id;sensor_type;location;lat;lon;timestamp;P1;durP1;ratioP1;P2;durP2;ratioP2
35576;SDS011;21680;52.400;16.920;2023-03-23T00:02:24;31.20;;;12.40;;
35576;SDS011;21680;52.400;16.920;2023-03-23T00:04:50;26.40;;;12.60;;
35576;SDS011;21680;52.400;16.920;2023-03-23T00:07:16;26.20;;;11.80;;
35576;SDS011;21680;52.400;16.920;2023-03-23T00:09:49;30.70;;;12.10;;
35576;SDS011;21680;52.400;16.920;2023-03-23T00:12:22;26.50;;;12.40;;
35576;SDS011;21680;52.400;16.920;2023-03-23T00:15:05;27.50;;;11.80;;
35576;SDS011;21680;52.400;16.920;2023-03-23T00:17:33;24.20;;;11.90;;
35576;SDS011;21680;52.400;16.920;2023-03-23T00:19:59;26.80;;;11.90;;
35576;SDS011;21680;52.400;16.920;2023-03-23T00:22:26;29.70;;;12.00;;
35576;SDS011;21680;52.400;16.920;2023-03-23T00:24:53;25.90;;;11.70;;
35576;SDS011;21680;52.400;16.920;2023-03-23T00:27:19;21.80;;;10.50;;
35576;SDS011;21680;52.400;16.920;2023-03-23T00:29:47;26.90;;;11.70;;
35576;SDS011;21680;52.400;16.920;2023-03-23T00:32:17;26.60;;;11.10;;
35576;SDS011;21680;52.400;16.920;2023-03-23T00:34:46;25.20;;;10.90;;
35576;SDS011;21680;52.400;16.920;2023-03-23T00:37:14;24.00;;;11.10;;
35576;SDS011;21680;52.400;16.920;2023-03-23T00:39:41;19.90;;;9.90;;
35576;SDS011;21680;52.400;16.920;2023-03-23T00:42:09;22.80;;;10.00;;
35576;SDS011;21680;52.400;16.920;2023-03-23T00:44:35;23.90;;;10.30;;
35576;SDS011;21680;52.400;16.920;2023-03-23T00:47:02;25.20;;;10.50;;
35576;SDS011;21680;52.400;16.920;2023-03-23T00:49:28;19.60;;;9.10;;
35576;SDS011;21680;52.400;16.920;2023-03-23T00:51:54;23.30;;;10.70;;
35576;SDS011;21680;52.400;16.920;2023-03-23T00:54:21;21.80;;;9.60;;
35576;SDS011;21680;52.400;16.920;2023-03-23T00:56:47;22.00;;;10.10;;
35576;SDS011;21680;52.400;16.920;2023-03-23T00:59:13;24.60;;;10.50;;
35576;SDS011;21680;52.400;16.920;2023-03-23T01:01:39;27.20;;;9.90;;
35576;SDS011;21680;52.400;16.920;2023-03-23T01:04:05;23.80;;;10.90;;
35576;SDS011;21680;52.400;16.920;2023-03-23T01:06:31;21.60;;;9.60;;
35576;SDS011;21680;52.400;16.920;2023-03-23T01:09:00;21.00;;;9.40;;
35576;SDS011;21680;52.400;16.920;2023-03-23T01:11:27;24.50;;;10.60;;
35576;SDS011;21680;52.400;16.920;2023-03-23T01:13:53;25.60;;;10.90;;
35576;SDS011;21680;52.400;16.920;2023-03-23T01:16:19;31.30;;;11.40;;
35576;SDS011;21680;52.400;16.920;2023-03-23T01:18:44;36.60;;;12.00;;
35576;SDS011;21680;52.400;16.920;2023-03-23T01:21:10;29.50;;;11.00;;
35576;SDS011;21680;52.400;16.920;2023-03-23T01:23:38;35.10;;;12.40;;
35576;SDS011;21680;52.400;16.920;2023-03-23T01:26:09;22.50;;;10.70;;
35576;SDS011;21680;52.400;16.920;2023-03-23T01:28:36;36.10;;;12.40;;
35576;SDS011;21680;52.400;16.920;2023-03-23T01:31:06;31.10;;;12.40;;
35576;SDS011;21680;52.400;16.920;2023-03-23T01:33:33;30.80;;;12.90;;
35576;SDS011;21680;52.400;16.920;2023-03-23T01:36:03;31.30;;;14.00;;
35576;SDS011;21680;52.400;16.920;2023-03-23T01:38:31;31.70;;;13.00;;
35576;SDS011;21680;52.400;16.920;2023-03-23T01:40:57;31.60;;;13.10;;
35576;SDS011;21680;52.400;16.920;2023-03-23T01:43:23;28.90;;;13.30;;
35576;SDS011;21680;52.400;16.920;2023-03-23T01:45:48;39.40;;;14.10;;
35576;SDS011;21680;52.400;16.920;2023-03-23T01:50:41;38.40;;;13.80;;
35576;SDS011;21680;52.400;16.920;2023-03-23T01:53:11;32.80;;;12.80;;
35576;SDS011;21680;52.400;16.920;2023-03-23T01:55:37;35.30;;;13.90;;
35576;SDS011;21680;52.400;16.920;2023-03-23T01:58:05;30.00;;;12.70;;
35576;SDS011;21680;52.400;16.920;2023-03-23T02:00:32;34.10;;;12.20;;
35576;SDS011;21680;52.400;16.920;2023-03-23T02:02:58;30.30;;;13.10;;
35576;SDS011;21680;52.400;16.920;2023-03-23T02:05:38;29.20;;;12.30;;
35576;SDS011;21680;52.400;16.920;2023-03-23T02:08:06;28.20;;;13.10;;
35576;SDS011;21680;52.400;16.920;2023-03-23T02:10:34;31.90;;;13.80;;
35576;SDS011;21680;52.400;16.920;2023-03-23T02:13:02;27.50;;;11.90;;
35576;SDS011;21680;52.400;16.920;2023-03-23T02:15:33;29.90;;;13.10;;
35576;SDS011;21680;52.400;16.920;2023-03-23T02:18:12;24.90;;;12.80;;
35576;SDS011;21680;52.400;16.920;2023-03-23T02:21:09;28.40;;;12.50;;
35576;SDS011;21680;52.400;16.920;2023-03-23T02:26:32;28.50;;;11.80;;
35576;SDS011;21680;52.400;16.920;2023-03-23T02:29:07;20.90;;;10.40;;
35576;SDS011;21680;52.400;16.920;2023-03-23T02:31:53;23.80;;;11.30;;
35576;SDS011;21680;52.400;16.920;2023-03-23T02:37:22;27.90;;;12.90;;
35576;SDS011;21680;52.400;16.920;2023-03-23T02:39:53;26.80;;;11.10;;
35576;SDS011;21680;52.400;16.920;2023-03-23T02:42:26;28.60;;;12.20;;
35576;SDS011;21680;52.400;16.920;2023-03-23T02:44:56;28.10;;;12.10;;
35576;SDS011;21680;52.400;16.920;2023-03-23T02:47:28;26.30;;;12.60;;
35576;SDS011;21680;52.400;16.920;2023-03-23T02:49:55;26.10;;;12.70;;
35576;SDS011;21680;52.400;16.920;2023-03-23T02:52:33;22.20;;;11.30;;
35576;SDS011;21680;52.400;16.920;2023-03-23T02:55:03;20.80;;;11.00;;
35576;SDS011;21680;52.400;16.920;2023-03-23T02:57:29;22.70;;;11.50;;
35576;SDS011;21680;52.400;16.920;2023-03-23T02:59:56;24.60;;;10.90;;
35576;SDS011;21680;52.400;16.920;2023-03-23T03:02:23;29.90;;;11.30;;
35576;SDS011;21680;52.400;16.920;2023-03-23T03:04:53;32.30;;;10.30;;
35576;SDS011;21680;52.400;16.920;2023-03-23T03:07:42;21.60;;;10.40;;
35576;SDS011;21680;52.400;16.920;2023-03-23T03:10:23;30.40;;;11.80;;
35576;SDS011;21680;52.400;16.920;2023-03-23T03:12:55;33.10;;;12.40;;
35576;SDS011;21680;52.400;16.920;2023-03-23T03:15:34;26.00;;;10.10;;
35576;SDS011;21680;52.400;16.920;2023-03-23T03:18:07;25.70;;;11.60;;
35576;SDS011;21680;52.400;16.920;2023-03-23T03:20:50;23.40;;;10.30;;
35576;SDS011;21680;52.400;16.920;2023-03-23T03:23:20;21.30;;;9.80;;
35576;SDS011;21680;52.400;16.920;2023-03-23T03:25:47;20.10;;;9.70;;
35576;SDS011;21680;52.400;16.920;2023-03-23T03:28:17;19.90;;;10.10;;
35576;SDS011;21680;52.400;16.920;2023-03-23T03:30:47;19.90;;;8.70;;
35576;SDS011;21680;52.400;16.920;2023-03-23T03:33:19;21.00;;;8.90;;
35576;SDS011;21680;52.400;16.920;2023-03-23T03:35:50;18.10;;;8.40;;
35576;SDS011;21680;52.400;16.920;2023-03-23T03:38:17;23.90;;;8.70;;
35576;SDS011;21680;52.400;16.920;2023-03-23T03:40:42;18.90;;;8.20;;
35576;SDS011;21680;52.400;16.920;2023-03-23T03:43:08;16.10;;;8.30;;
35576;SDS011;21680;52.400;16.920;2023-03-23T03:45:33;16.00;;;8.00;;
35576;SDS011;21680;52.400;16.920;2023-03-23T03:47:58;16.30;;;7.70;;
35576;SDS011;21680;52.400;16.920;2023-03-23T03:50:25;17.80;;;8.50;;
35576;SDS011;21680;52.400;16.920;2023-03-23T03:52:51;22.10;;;9.00;;
35576;SDS011;21680;52.400;16.920;2023-03-23T03:55:17;17.20;;;8.60;;
35576;SDS011;21680;52.400;16.920;2023-03-23T03:57:42;15.40;;;7.50;;
35576;SDS011;21680;52.400;16.920;2023-03-23T04:00:09;16.60;;;8.00;;
35576;SDS011;21680;52.400;16.920;2023-03-23T04:02:40;16.20;;;7.60;;
35576;SDS011;21680;52.400;16.920;2023-03-23T04:05:06;26.60;;;10.10;;
35576;SDS011;21680;52.400;16.920;2023-03-23T04:07:33;18.80;;;8.50;;
35576;SDS011;21680;52.400;16.920;2023-03-23T04:09:58;16.60;;;7.60;;
35576;SDS011;21680;52.400;16.920;2023-03-23T04:12:23;18.40;;;7.20;;
35576;SDS011;21680;52.400;16.920;2023-03-23T04:14:49;17.40;;;7.70;;
35576;SDS011;21680;52.400;16.920;2023-03-23T04:17:14;17.90;;;6.80;;
35576;SDS011;21680;52.400;16.920;2023-03-23T04:19:41;17.80;;;7.00;;
35576;SDS011;21680;52.400;16.920;2023-03-23T04:22:07;12.90;;;6.20;;
35576;SDS011;21680;52.400;16.920;2023-03-23T04:24:32;14.10;;;5.80;;
35576;SDS011;21680;52.400;16.920;2023-03-23T04:26:58;17.50;;;5.90;;
35576;SDS011;21680;52.400;16.920;2023-03-23T04:29:24;13.90;;;6.00;;
35576;SDS011;21680;52.400;16.920;2023-03-23T04:31:50;15.80;;;5.90;;
35576;SDS011;21680;52.400;16.920;2023-03-23T04:34:17;12.00;;;5.40;;
35576;SDS011;21680;52.400;16.920;2023-03-23T04:36:43;17.30;;;5.90;;
35576;SDS011;21680;52.400;16.920;2023-03-23T04:39:09;10.30;;;5.60;;
35576;SDS011;21680;52.400;16.920;2023-03-23T04:41:38;12.30;;;5.70;;
35576;SDS011;21680;52.400;16.920;2023-03-23T04:44:04;13.50;;;5.80;;
35576;SDS011;21680;52.400;16.920;2023-03-23T04:46:30;15.40;;;5.50;;
35576;SDS011;21680;52.400;16.920;2023-03-23T04:48:57;11.70;;;5.00;;
35576;SDS011;21680;52.400;16.920;2023-03-23T04:51:24;10.40;;;5.50;;
35576;SDS011;21680;52.400;16.920;2023-03-23T04:53:51;14.80;;;5.60;;
35576;SDS011;21680;52.400;16.920;2023-03-23T04:56:17;20.50;;;6.40;;
35576;SDS011;21680;52.400;16.920;2023-03-23T04:58:43;15.20;;;5.80;;
35576;SDS011;21680;52.400;16.920;2023-03-23T05:01:10;12.00;;;5.80;;
35576;SDS011;21680;52.400;16.920;2023-03-23T05:03:38;10.20;;;4.80;;
35576;SDS011;21680;52.400;16.920;2023-03-23T05:06:04;11.70;;;5.20;;
35576;SDS011;21680;52.400;16.920;2023-03-23T05:08:31;13.80;;;4.70;;
35576;SDS011;21680;52.400;16.920;2023-03-23T05:10:57;10.20;;;4.40;;
35576;SDS011;21680;52.400;16.920;2023-03-23T05:13:24;10.10;;;4.10;;
35576;SDS011;21680;52.400;16.920;2023-03-23T05:15:50;9.70;;;4.40;;
35576;SDS011;21680;52.400;16.920;2023-03-23T05:18:16;13.00;;;4.20;;
35576;SDS011;21680;52.400;16.920;2023-03-23T05:20:42;8.00;;;4.00;;
35576;SDS011;21680;52.400;16.920;2023-03-23T05:23:08;9.60;;;4.00;;
35576;SDS011;21680;52.400;16.920;2023-03-23T05:25:34;9.50;;;4.30;;
35576;SDS011;21680;52.400;16.920;2023-03-23T05:28:04;7.20;;;4.00;;
35576;SDS011;21680;52.400;16.920;2023-03-23T05:30:30;8.00;;;4.20;;
35576;SDS011;21680;52.400;16.920;2023-03-23T05:32:55;12.70;;;4.00;;
35576;SDS011;21680;52.400;16.920;2023-03-23T05:35:21;16.80;;;4.50;;
35576;SDS011;21680;52.400;16.920;2023-03-23T05:37:47;8.50;;;4.80;;
35576;SDS011;21680;52.400;16.920;2023-03-23T05:40:13;16.10;;;5.00;;
35576;SDS011;21680;52.400;16.920;2023-03-23T05:42:39;9.90;;;4.30;;
35576;SDS011;21680;52.400;16.920;2023-03-23T05:45:06;10.30;;;4.90;;
35576;SDS011;21680;52.400;16.920;2023-03-23T05:47:34;14.40;;;4.80;;
35576;SDS011;21680;52.400;16.920;2023-03-23T05:49:59;12.30;;;4.80;;
35576;SDS011;21680;52.400;16.920;2023-03-23T05:52:25;22.00;;;5.70;;
35576;SDS011;21680;52.400;16.920;2023-03-23T05:54:52;12.00;;;4.70;;
35576;SDS011;21680;52.400;16.920;2023-03-23T05:57:18;11.00;;;3.80;;
35576;SDS011;21680;52.400;16.920;2023-03-23T05:59:46;12.40;;;3.50;;
35576;SDS011;21680;52.400;16.920;2023-03-23T06:02:12;8.90;;;3.50;;
35576;SDS011;21680;52.400;16.920;2023-03-23T06:04:39;8.30;;;3.40;;
35576;SDS011;21680;52.400;16.920;2023-03-23T06:07:06;6.80;;;2.90;;
35576;SDS011;21680;52.400;16.920;2023-03-23T06:09:32;8.70;;;3.30;;
35576;SDS011;21680;52.400;16.920;2023-03-23T06:11:58;8.50;;;3.30;;
35576;SDS011;21680;52.400;16.920;2023-03-23T06:14:23;8.30;;;3.50;;
35576;SDS011;21680;52.400;16.920;2023-03-23T06:16:48;5.60;;;3.00;;
35576;SDS011;21680;52.400;16.920;2023-03-23T06:19:14;7.30;;;3.10;;
35576;SDS011;21680;52.400;16.920;2023-03-23T06:21:41;9.70;;;3.20;;
35576;SDS011;21680;52.400;16.920;2023-03-23T06:24:07;9.10;;;3.40;;
35576;SDS011;21680;52.400;16.920;2023-03-23T06:26:34;10.70;;;5.10;;
35576;SDS011;21680;52.400;16.920;2023-03-23T06:29:07;8.50;;;3.70;;
35576;SDS011;21680;52.400;16.920;2023-03-23T06:31:37;12.20;;;3.60;;
35576;SDS011;21680;52.400;16.920;2023-03-23T06:34:05;11.00;;;3.10;;
35576;SDS011;21680;52.400;16.920;2023-03-23T06:36:30;6.20;;;2.80;;
35576;SDS011;21680;52.400;16.920;2023-03-23T06:38:56;9.20;;;3.00;;
35576;SDS011;21680;52.400;16.920;2023-03-23T06:41:22;7.40;;;3.00;;
35576;SDS011;21680;52.400;16.920;2023-03-23T06:43:47;9.00;;;3.00;;
35576;SDS011;21680;52.400;16.920;2023-03-23T06:46:13;6.70;;;2.80;;
35576;SDS011;21680;52.400;16.920;2023-03-23T06:48:38;11.80;;;2.90;;
35576;SDS011;21680;52.400;16.920;2023-03-23T06:51:04;10.00;;;2.90;;
35576;SDS011;21680;52.400;16.920;2023-03-23T06:53:29;4.00;;;2.00;;
35576;SDS011;21680;52.400;16.920;2023-03-23T06:55:55;6.20;;;2.50;;
35576;SDS011;21680;52.400;16.920;2023-03-23T06:58:21;6.00;;;2.10;;
35576;SDS011;21680;52.400;16.920;2023-03-23T07:00:52;7.30;;;2.40;;
35576;SDS011;21680;52.400;16.920;2023-03-23T07:03:18;4.40;;;2.30;;
35576;SDS011;21680;52.400;16.920;2023-03-23T07:05:45;10.00;;;2.70;;
35576;SDS011;21680;52.400;16.920;2023-03-23T07:08:11;6.30;;;2.10;;
35576;SDS011;21680;52.400;16.920;2023-03-23T07:10:38;7.40;;;2.10;;
35576;SDS011;21680;52.400;16.920;2023-03-23T07:13:05;5.40;;;1.90;;
35576;SDS011;21680;52.400;16.920;2023-03-23T07:15:30;5.60;;;2.60;;
35576;SDS011;21680;52.400;16.920;2023-03-23T07:17:56;4.80;;;2.50;;
35576;SDS011;21680;52.400;16.920;2023-03-23T07:20:22;4.40;;;2.10;;
35576;SDS011;21680;52.400;16.920;2023-03-23T07:22:47;5.50;;;2.60;;
35576;SDS011;21680;52.400;16.920;2023-03-23T07:25:13;4.70;;;2.10;;
35576;SDS011;21680;52.400;16.920;2023-03-23T07:27:38;5.60;;;2.60;;
35576;SDS011;21680;52.400;16.920;2023-03-23T07:30:05;7.60;;;2.60;;
35576;SDS011;21680;52.400;16.920;2023-03-23T07:32:32;11.20;;;2.20;;
35576;SDS011;21680;52.400;16.920;2023-03-23T07:34:57;3.80;;;2.20;;
35576;SDS011;21680;52.400;16.920;2023-03-23T07:37:23;6.10;;;2.40;;
35576;SDS011;21680;52.400;16.920;2023-03-23T07:39:48;11.30;;;2.30;;
35576;SDS011;21680;52.400;16.920;2023-03-23T07:42:14;9.30;;;2.60;;
35576;SDS011;21680;52.400;16.920;2023-03-23T07:44:39;7.10;;;3.60;;
35576;SDS011;21680;52.400;16.920;2023-03-23T07:47:04;7.60;;;2.70;;
35576;SDS011;21680;52.400;16.920;2023-03-23T07:49:30;4.20;;;2.60;;
35576;SDS011;21680;52.400;16.920;2023-03-23T07:51:56;13.60;;;3.80;;
35576;SDS011;21680;52.400;16.920;2023-03-23T07:54:22;8.40;;;2.70;;
35576;SDS011;21680;52.400;16.920;2023-03-23T07:56:48;7.40;;;2.70;;
35576;SDS011;21680;52.400;16.920;2023-03-23T07:59:13;8.30;;;3.10;;
35576;SDS011;21680;52.400;16.920;2023-03-23T08:01:38;8.50;;;2.90;;
35576;SDS011;21680;52.400;16.920;2023-03-23T08:04:04;7.30;;;2.60;;
35576;SDS011;21680;52.400;16.920;2023-03-23T08:06:31;7.50;;;3.10;;
35576;SDS011;21680;52.400;16.920;2023-03-23T08:08:58;6.30;;;2.80;;
35576;SDS011;21680;52.400;16.920;2023-03-23T08:11:25;10.10;;;2.50;;
35576;SDS011;21680;52.400;16.920;2023-03-23T08:13:51;7.50;;;3.00;;
35576;SDS011;21680;52.400;16.920;2023-03-23T08:16:17;9.60;;;3.20;;
35576;SDS011;21680;52.400;16.920;2023-03-23T08:18:44;7.00;;;3.10;;
35576;SDS011;21680;52.400;16.920;2023-03-23T08:21:09;9.40;;;3.40;;
35576;SDS011;21680;52.400;16.920;2023-03-23T08:23:35;9.50;;;2.90;;
35576;SDS011;21680;52.400;16.920;2023-03-23T08:26:02;5.90;;;2.60;;
35576;SDS011;21680;52.400;16.920;2023-03-23T08:28:32;7.40;;;3.00;;
35576;SDS011;21680;52.400;16.920;2023-03-23T08:30:58;5.20;;;2.60;;
35576;SDS011;21680;52.400;16.920;2023-03-23T08:33:24;8.20;;;2.70;;
35576;SDS011;21680;52.400;16.920;2023-03-23T08:35:56;7.80;;;2.10;;
35576;SDS011;21680;52.400;16.920;2023-03-23T08:38:24;9.40;;;3.50;;
35576;SDS011;21680;52.400;16.920;2023-03-23T08:40:50;5.90;;;2.40;;
35576;SDS011;21680;52.400;16.920;2023-03-23T08:43:17;4.90;;;3.30;;
35576;SDS011;21680;52.400;16.920;2023-03-23T08:45:43;7.30;;;2.90;;
35576;SDS011;21680;52.400;16.920;2023-03-23T08:48:08;8.90;;;3.20;;
35576;SDS011;21680;52.400;16.920;2023-03-23T08:50:34;5.30;;;2.40;;
35576;SDS011;21680;52.400;16.920;2023-03-23T08:53:00;7.00;;;3.00;;
35576;SDS011;21680;52.400;16.920;2023-03-23T08:55:26;3.80;;;2.30;;
35576;SDS011;21680;52.400;16.920;2023-03-23T08:57:51;4.60;;;2.00;;
35576;SDS011;21680;52.400;16.920;2023-03-23T09:00:18;4.40;;;2.00;;
35576;SDS011;21680;52.400;16.920;2023-03-23T09:02:47;4.50;;;2.30;;
35576;SDS011;21680;52.400;16.920;2023-03-23T09:05:15;3.90;;;1.90;;
35576;SDS011;21680;52.400;16.920;2023-03-23T09:07:49;6.00;;;2.40;;
35576;SDS011;21680;52.400;16.920;2023-03-23T09:10:17;7.10;;;2.40;;
35576;SDS011;21680;52.400;16.920;2023-03-23T09:12:43;9.40;;;2.40;;
35576;SDS011;21680;52.400;16.920;2023-03-23T09:15:12;4.40;;;2.60;;
35576;SDS011;21680;52.400;16.920;2023-03-23T09:17:46;4.90;;;2.50;;
35576;SDS011;21680;52.400;16.920;2023-03-23T09:20:14;4.90;;;2.50;;
35576;SDS011;21680;52.400;16.920;2023-03-23T09:22:42;7.20;;;2.70;;
35576;SDS011;21680;52.400;16.920;2023-03-23T09:25:11;5.70;;;2.30;;
35576;SDS011;21680;52.400;16.920;2023-03-23T09:27:38;8.00;;;2.40;;
35576;SDS011;21680;52.400;16.920;2023-03-23T09:30:08;3.20;;;2.00;;
35576;SDS011;21680;52.400;16.920;2023-03-23T09:35:02;5.90;;;2.40;;
35576;SDS011;21680;52.400;16.920;2023-03-23T09:37:29;5.90;;;2.30;;
35576;SDS011;21680;52.400;16.920;2023-03-23T09:39:54;5.90;;;2.20;;
35576;SDS011;21680;52.400;16.920;2023-03-23T09:44:50;8.30;;;2.30;;
35576;SDS011;21680;52.400;16.920;2023-03-23T09:52:43;6.90;;;1.80;;
35576;SDS011;21680;52.400;16.920;2023-03-23T09:55:16;8.10;;;2.10;;
35576;SDS011;21680;52.400;16.920;2023-03-23T10:00:22;9.20;;;2.20;;
35576;SDS011;21680;52.400;16.920;2023-03-23T10:03:08;4.70;;;1.60;;
35576;SDS011;21680;52.400;16.920;2023-03-23T10:05:47;2.40;;;1.50;;
35576;SDS011;21680;52.400;16.920;2023-03-23T10:08:15;6.20;;;1.50;;
35576;SDS011;21680;52.400;16.920;2023-03-23T10:16:29;9.40;;;1.60;;
35576;SDS011;21680;52.400;16.920;2023-03-23T10:19:22;9.90;;;1.90;;
35576;SDS011;21680;52.400;16.920;2023-03-23T10:22:11;10.40;;;1.80;;
35576;SDS011;21680;52.400;16.920;2023-03-23T10:24:43;7.60;;;1.60;;
35576;SDS011;21680;52.400;16.920;2023-03-23T10:27:33;14.50;;;2.00;;
35576;SDS011;21680;52.400;16.920;2023-03-23T10:30:27;2.20;;;1.30;;
35576;SDS011;21680;52.400;16.920;2023-03-23T10:33:10;3.80;;;1.70;;
35576;SDS011;21680;52.400;16.920;2023-03-23T10:35:52;2.20;;;1.50;;
35576;SDS011;21680;52.400;16.920;2023-03-23T10:38:27;2.60;;;1.40;;
35576;SDS011;21680;52.400;16.920;2023-03-23T10:41:06;8.00;;;2.20;;
35576;SDS011;21680;52.400;16.920;2023-03-23T10:43:37;2.20;;;1.70;;
35576;SDS011;21680;52.400;16.920;2023-03-23T10:49:05;9.00;;;1.60;;
35576;SDS011;21680;52.400;16.920;2023-03-23T10:51:39;4.70;;;2.20;;
35576;SDS011;21680;52.400;16.920;2023-03-23T10:54:09;3.70;;;2.10;;
35576;SDS011;21680;52.400;16.920;2023-03-23T10:56:36;3.10;;;2.00;;
35576;SDS011;21680;52.400;16.920;2023-03-23T10:59:11;4.40;;;2.20;;
35576;SDS011;21680;52.400;16.920;2023-03-23T11:01:38;4.80;;;2.60;;
35576;SDS011;21680;52.400;16.920;2023-03-23T11:04:12;5.90;;;1.80;;
35576;SDS011;21680;52.400;16.920;2023-03-23T11:06:42;6.60;;;2.40;;
35576;SDS011;21680;52.400;16.920;2023-03-23T11:09:11;5.70;;;2.00;;
35576;SDS011;21680;52.400;16.920;2023-03-23T11:11:43;5.10;;;1.90;;
35576;SDS011;21680;52.400;16.920;2023-03-23T11:14:33;5.20;;;2.00;;
35576;SDS011;21680;52.400;16.920;2023-03-23T11:17:04;3.60;;;1.80;;
35576;SDS011;21680;52.400;16.920;2023-03-23T11:19:45;3.10;;;1.50;;
35576;SDS011;21680;52.400;16.920;2023-03-23T11:22:16;1.70;;;1.30;;
35576;SDS011;21680;52.400;16.920;2023-03-23T11:24:54;2.20;;;1.50;;
35576;SDS011;21680;52.400;16.920;2023-03-23T11:27:24;5.70;;;1.90;;
35576;SDS011;21680;52.400;16.920;2023-03-23T11:29:53;9.90;;;2.00;;
35576;SDS011;21680;52.400;16.920;2023-03-23T11:32:28;4.00;;;1.40;;
35576;SDS011;21680;52.400;16.920;2023-03-23T11:35:02;2.70;;;1.60;;
35576;SDS011;21680;52.400;16.920;2023-03-23T11:37:41;5.30;;;1.90;;
35576;SDS011;21680;52.400;16.920;2023-03-23T11:53:54;5.20;;;1.30;;
35576;SDS011;21680;52.400;16.920;2023-03-23T11:56:35;1.50;;;1.00;;
35576;SDS011;21680;52.400;16.920;2023-03-23T11:59:03;2.70;;;1.50;;
35576;SDS011;21680;52.400;16.920;2023-03-23T12:12:33;3.10;;;1.00;;
35576;SDS011;21680;52.400;16.920;2023-03-23T12:18:21;3.20;;;1.10;;
35576;SDS011;21680;52.400;16.920;2023-03-23T12:23:35;3.90;;;1.20;;
35576;SDS011;21680;52.400;16.920;2023-03-23T12:36:44;4.00;;;1.40;;
35576;SDS011;21680;52.400;16.920;2023-03-23T12:48:04;6.40;;;1.70;;
35576;SDS011;21680;52.400;16.920;2023-03-23T12:51:23;2.90;;;1.40;;
35576;SDS011;21680;52.400;16.920;2023-03-23T12:54:25;4.90;;;1.60;;
35576;SDS011;21680;52.400;16.920;2023-03-23T12:56:33;2.90;;;1.60;;
35576;SDS011;21680;52.400;16.920;2023-03-23T13:01:45;3.30;;;2.20;;
35576;SDS011;21680;52.400;16.920;2023-03-23T13:04:16;3.30;;;1.90;;
35576;SDS011;21680;52.400;16.920;2023-03-23T13:06:46;7.40;;;2.00;;
35576;SDS011;21680;52.400;16.920;2023-03-23T13:09:20;5.20;;;2.00;;
35576;SDS011;21680;52.400;16.920;2023-03-23T13:11:55;5.00;;;1.80;;
35576;SDS011;21680;52.400;16.920;2023-03-23T13:20:43;6.00;;;1.90;;
35576;SDS011;21680;52.400;16.920;2023-03-23T13:23:21;7.80;;;2.10;;
35576;SDS011;21680;52.400;16.920;2023-03-23T13:26:23;5.30;;;1.70;;
35576;SDS011;21680;52.400;16.920;2023-03-23T13:31:22;2.20;;;1.40;;
35576;SDS011;21680;52.400;16.920;2023-03-23T13:36:57;5.10;;;1.80;;
35576;SDS011;21680;52.400;16.920;2023-03-23T13:39:28;4.20;;;2.00;;
35576;SDS011;21680;52.400;16.920;2023-03-23T13:44:25;4.20;;;2.10;;
35576;SDS011;21680;52.400;16.920;2023-03-23T13:46:55;4.60;;;1.90;;
35576;SDS011;21680;52.400;16.920;2023-03-23T13:49:23;3.80;;;2.10;;
35576;SDS011;21680;52.400;16.920;2023-03-23T13:54:29;6.60;;;2.70;;
35576;SDS011;21680;52.400;16.920;2023-03-23T13:56:59;2.30;;;1.80;;
35576;SDS011;21680;52.400;16.920;2023-03-23T14:01:52;3.50;;;1.90;;
35576;SDS011;21680;52.400;16.920;2023-03-23T14:04:23;2.20;;;1.20;;
35576;SDS011;21680;52.400;16.920;2023-03-23T14:06:56;3.80;;;2.10;;
35576;SDS011;21680;52.400;16.920;2023-03-23T14:11:49;4.20;;;1.90;;
35576;SDS011;21680;52.400;16.920;2023-03-23T14:14:23;3.90;;;2.00;;
35576;SDS011;21680;52.400;16.920;2023-03-23T14:16:53;4.80;;;2.10;;
35576;SDS011;21680;52.400;16.920;2023-03-23T14:19:38;3.30;;;1.70;;
35576;SDS011;21680;52.400;16.920;2023-03-23T14:22:04;4.00;;;1.80;;
35576;SDS011;21680;52.400;16.920;2023-03-23T14:24:41;4.00;;;1.80;;
35576;SDS011;21680;52.400;16.920;2023-03-23T14:29:35;2.90;;;1.70;;
35576;SDS011;21680;52.400;16.920;2023-03-23T14:32:01;2.90;;;1.90;;
35576;SDS011;21680;52.400;16.920;2023-03-23T14:34:29;5.90;;;2.10;;
35576;SDS011;21680;52.400;16.920;2023-03-23T14:36:57;5.50;;;2.00;;
35576;SDS011;21680;52.400;16.920;2023-03-23T14:39:30;7.10;;;2.00;;
35576;SDS011;21680;52.400;16.920;2023-03-23T14:42:16;3.10;;;2.10;;
35576;SDS011;21680;52.400;16.920;2023-03-23T14:44:47;6.60;;;2.90;;
35576;SDS011;21680;52.400;16.920;2023-03-23T14:47:24;3.20;;;2.30;;
35576;SDS011;21680;52.400;16.920;2023-03-23T14:49:53;2.90;;;2.00;;
35576;SDS011;21680;52.400;16.920;2023-03-23T14:52:21;3.60;;;2.00;;
35576;SDS011;21680;52.400;16.920;2023-03-23T14:54:48;6.90;;;1.80;;
35576;SDS011;21680;52.400;16.920;2023-03-23T14:57:15;2.30;;;1.80;;
35576;SDS011;21680;52.400;16.920;2023-03-23T14:59:46;6.90;;;2.50;;
35576;SDS011;21680;52.400;16.920;2023-03-23T15:02:26;4.60;;;2.30;;
35576;SDS011;21680;52.400;16.920;2023-03-23T15:04:54;4.00;;;1.90;;
35576;SDS011;21680;52.400;16.920;2023-03-23T15:09:51;2.70;;;1.90;;
35576;SDS011;21680;52.400;16.920;2023-03-23T15:12:24;6.60;;;1.80;;
35576;SDS011;21680;52.400;16.920;2023-03-23T15:14:54;9.50;;;2.30;;
35576;SDS011;21680;52.400;16.920;2023-03-23T15:17:22;4.60;;;2.30;;
35576;SDS011;21680;52.400;16.920;2023-03-23T15:19:50;3.20;;;2.10;;
35576;SDS011;21680;52.400;16.920;2023-03-23T15:25:09;3.90;;;2.10;;
35576;SDS011;21680;52.400;16.920;2023-03-23T15:27:40;4.60;;;2.00;;
35576;SDS011;21680;52.400;16.920;2023-03-23T15:30:45;4.60;;;2.30;;
35576;SDS011;21680;52.400;16.920;2023-03-23T15:33:11;3.30;;;2.00;;
35576;SDS011;21680;52.400;16.920;2023-03-23T15:35:39;12.70;;;2.40;;
35576;SDS011;21680;52.400;16.920;2023-03-23T15:38:20;5.40;;;2.50;;
35576;SDS011;21680;52.400;16.920;2023-03-23T15:40:51;7.70;;;2.60;;
35576;SDS011;21680;52.400;16.920;2023-03-23T15:43:25;7.20;;;2.60;;
35576;SDS011;21680;52.400;16.920;2023-03-23T15:46:01;3.60;;;2.30;;
35576;SDS011;21680;52.400;16.920;2023-03-23T15:51:19;8.60;;;2.40;;
35576;SDS011;21680;52.400;16.920;2023-03-23T15:53:46;3.70;;;2.10;;
35576;SDS011;21680;52.400;16.920;2023-03-23T15:56:12;5.10;;;2.30;;
35576;SDS011;21680;52.400;16.920;2023-03-23T15:58:38;6.00;;;2.90;;
35576;SDS011;21680;52.400;16.920;2023-03-23T16:01:24;8.80;;;3.10;;
35576;SDS011;21680;52.400;16.920;2023-03-23T16:03:56;5.10;;;3.10;;
35576;SDS011;21680;52.400;16.920;2023-03-23T16:06:26;9.10;;;2.90;;
35576;SDS011;21680;52.400;16.920;2023-03-23T16:08:54;5.30;;;2.50;;
35576;SDS011;21680;52.400;16.920;2023-03-23T16:11:21;7.80;;;3.10;;
35576;SDS011;21680;52.400;16.920;2023-03-23T16:13:47;5.70;;;3.00;;
35576;SDS011;21680;52.400;16.920;2023-03-23T16:16:13;6.40;;;3.00;;
35576;SDS011;21680;52.400;16.920;2023-03-23T16:18:42;5.30;;;3.10;;
35576;SDS011;21680;52.400;16.920;2023-03-23T16:21:08;8.50;;;2.90;;
35576;SDS011;21680;52.400;16.920;2023-03-23T16:23:33;7.20;;;3.40;;
35576;SDS011;21680;52.400;16.920;2023-03-23T16:25:58;7.80;;;3.20;;
35576;SDS011;21680;52.400;16.920;2023-03-23T16:28:24;4.80;;;3.00;;
35576;SDS011;21680;52.400;16.920;2023-03-23T16:30:49;28.50;;;4.70;;
35576;SDS011;21680;52.400;16.920;2023-03-23T16:33:15;7.80;;;3.90;;
35576;SDS011;21680;52.400;16.920;2023-03-23T16:35:40;6.00;;;3.30;;